MSC Ines — 3EFZ3 — position and weather

sailwx.info

Track history (hours):
 
Tides and Currents Weather Stations Pressure Air Temp Water Temp Dewpoint Dewpoint Depression Visibility Wind Speed Wind Dir Waves Ship Positions

MSC Ines

Last reported at 2016-Apr-17 13:28 UTC. Time now 2016-May-04 19:19 UTC.
Position S 30°09' E 031°05'.
Warning: this ship's position is 17 days out of date.

Length 349 m; draft 12.9 m.

Type: Ship (hazmat cat A). MMSI: 356112000.

Date/timePositionNaut miles runAvg speedWind from/ knotsBaromVisibWave heightAir tempDewpointWater temp
2016-Apr-17 13:28S 30°09' E 031°05'1516.2
2016-Apr-17 12:34S 29°55' E 031°09'7 7.2
2016-Apr-17 11:33S 29°52' E 031°02'1 0.1
2016-Apr-17 08:03S 29°53' E 031°01'0 0.0
2016-Apr-17 07:27S 29°53' E 031°01'0 0.0
2016-Apr-15 19:32S 29°53' E 031°01'7 7.7
2016-Apr-15 18:34S 29°49' E 031°09'8 7.7
2016-Apr-15 17:34S 29°41' E 031°11'0 0.2
2016-Apr-15 16:33S 29°42' E 031°11'0 0.0
2016-Apr-15 15:33S 29°42' E 031°11'0 0.0
2016-Apr-15 14:33S 29°42' E 031°11'0 0.0
2016-Apr-15 13:33S 29°42' E 031°11'0 0.0
2016-Apr-15 12:33S 29°42' E 031°11'0 0.0
2016-Apr-15 11:33S 29°42' E 031°11'0 0.0
2016-Apr-15 10:33S 29°42' E 031°11'0 0.0
2016-Apr-15 09:33S 29°42' E 031°11'0 0.0
2016-Apr-15 08:33S 29°42' E 031°11'0 0.0
2016-Apr-15 07:33S 29°42' E 031°11'0 0.0
2016-Apr-15 06:33S 29°42' E 031°11'0 0.1
2016-Apr-15 05:33S 29°42' E 031°11'0 0.0
2016-Apr-15 04:33S 29°42' E 031°11'0 0.0
2016-Apr-15 03:33S 29°42' E 031°11'0 0.0
2016-Apr-15 02:33S 29°42' E 031°11'0 0.0
2016-Apr-15 00:32S 29°42' E 031°11'0 0.0
2016-Apr-14 23:32S 29°42' E 031°11'0 0.0
2016-Apr-14 22:32S 29°42' E 031°11'0 0.0
2016-Apr-14 21:32S 29°42' E 031°11'0 0.0
2016-Apr-14 20:32S 29°42' E 031°11'0 0.0
2016-Apr-14 19:32S 29°42' E 031°11'0 0.0
2016-Apr-14 18:32S 29°42' E 031°11'0 0.0
2016-Apr-14 17:32S 29°42' E 031°11'0 0.3
2016-Apr-14 16:33S 29°42' E 031°12'10 9.9
2016-Apr-14 15:34S 29°39' E 031°23'1313.3
2016-Apr-14 14:34S 29°36' E 031°37'8 7.8
2016-Apr-14 13:33S 29°38' E 031°46'9 9.0
2016-Apr-14 12:33S 29°40' E 031°56'1111.4
2016-Apr-14 11:33S 29°37' E 032°09'1111.0
2016-Apr-14 10:33S 29°34' E 032°21'1110.3
2016-Apr-14 09:27S 29°31' E 032°33'  
2016-Apr-10 02:33S 20°17' E 057°13'1616.6
2016-Apr-10 01:33S 20°07' E 057°27'3 3.0
2016-Apr-10 00:33S 20°09' E 057°29'0 0.0
2016-Apr-09 23:34S 20°09' E 057°29'0 0.0
2016-Apr-09 22:33S 20°09' E 057°29'0 0.0
2016-Apr-09 21:34S 20°09' E 057°29'0 0.0
2016-Apr-09 20:34S 20°09' E 057°29'0 0.0
2016-Apr-09 19:33S 20°09' E 057°29'0 0.0
2016-Apr-09 18:33S 20°09' E 057°29'0 0.0
2016-Apr-09 17:33S 20°09' E 057°29'0 0.0
2016-Apr-09 16:34S 20°09' E 057°29'0 0.0
2016-Apr-09 15:34S 20°09' E 057°29'0 0.0
2016-Apr-09 14:34S 20°09' E 057°29'0 0.0
2016-Apr-09 13:34S 20°09' E 057°29'0 0.0
2016-Apr-09 12:34S 20°09' E 057°29'0 0.0
2016-Apr-09 11:31S 20°09' E 057°29'0 0.1
2016-Apr-09 10:33S 20°08' E 057°29'4 3.7
2016-Apr-09 09:34S 20°06' E 057°26'2 2.1
2016-Apr-09 08:34S 20°04' E 057°25'1 1.3
2016-Apr-09 07:34S 20°05' E 057°24'1 1.2
2016-Apr-09 06:34S 20°05' E 057°23'1 0.9
2016-Apr-09 05:34S 20°06' E 057°23'1 0.6
2016-Apr-09 04:34S 20°06' E 057°24'0 0.2
2016-Apr-09 03:34S 20°06' E 057°23'5 5.5
2016-Apr-09 02:34S 20°00' E 057°25'1312.9
2016-Apr-09 01:33S 19°49' E 057°31'  
Track history (hours):
 
Tides and Currents Weather Stations Pressure Air Temp Water Temp Dewpoint Dewpoint Depression Visibility Wind Speed Wind Dir Waves Ship Positions

MSC Ines

Last reported at 2016-Apr-17 13:28 UTC. Time now 2016-May-04 19:19 UTC.
Position S 30°09' E 031°05'.
Warning: this ship's position is 17 days out of date.

Length 349 m; draft 12.9 m.

Type: Ship (hazmat cat A). MMSI: 356112000.

Date/timePositionNaut miles runAvg speedWind from/ knotsBaromVisibWave heightAir tempDewpointWater temp
2016-Apr-17 13:28S 30°09' E 031°05'1516.2
2016-Apr-17 12:34S 29°55' E 031°09'7 7.2
2016-Apr-17 11:33S 29°52' E 031°02'1 0.1
2016-Apr-17 08:03S 29°53' E 031°01'0 0.0
2016-Apr-17 07:27S 29°53' E 031°01'0 0.0
2016-Apr-15 19:32S 29°53' E 031°01'7 7.7
2016-Apr-15 18:34S 29°49' E 031°09'8 7.7
2016-Apr-15 17:34S 29°41' E 031°11'0 0.2
2016-Apr-15 16:33S 29°42' E 031°11'0 0.0
2016-Apr-15 15:33S 29°42' E 031°11'0 0.0
2016-Apr-15 14:33S 29°42' E 031°11'0 0.0
2016-Apr-15 13:33S 29°42' E 031°11'0 0.0
2016-Apr-15 12:33S 29°42' E 031°11'0 0.0
2016-Apr-15 11:33S 29°42' E 031°11'0 0.0
2016-Apr-15 10:33S 29°42' E 031°11'0 0.0
2016-Apr-15 09:33S 29°42' E 031°11'0 0.0
2016-Apr-15 08:33S 29°42' E 031°11'0 0.0
2016-Apr-15 07:33S 29°42' E 031°11'0 0.0
2016-Apr-15 06:33S 29°42' E 031°11'0 0.1
2016-Apr-15 05:33S 29°42' E 031°11'0 0.0
2016-Apr-15 04:33S 29°42' E 031°11'0 0.0
2016-Apr-15 03:33S 29°42' E 031°11'0 0.0
2016-Apr-15 02:33S 29°42' E 031°11'0 0.0
2016-Apr-15 00:32S 29°42' E 031°11'0 0.0
2016-Apr-14 23:32S 29°42' E 031°11'0 0.0
2016-Apr-14 22:32S 29°42' E 031°11'0 0.0
2016-Apr-14 21:32S 29°42' E 031°11'0 0.0
2016-Apr-14 20:32S 29°42' E 031°11'0 0.0
2016-Apr-14 19:32S 29°42' E 031°11'0 0.0
2016-Apr-14 18:32S 29°42' E 031°11'0 0.0
2016-Apr-14 17:32S 29°42' E 031°11'0 0.3
2016-Apr-14 16:33S 29°42' E 031°12'10 9.9
2016-Apr-14 15:34S 29°39' E 031°23'1313.3
2016-Apr-14 14:34S 29°36' E 031°37'8 7.8
2016-Apr-14 13:33S 29°38' E 031°46'9 9.0
2016-Apr-14 12:33S 29°40' E 031°56'1111.4
2016-Apr-14 11:33S 29°37' E 032°09'1111.0
2016-Apr-14 10:33S 29°34' E 032°21'1110.3
2016-Apr-14 09:27S 29°31' E 032°33'  
2016-Apr-10 02:33S 20°17' E 057°13'1616.6
2016-Apr-10 01:33S 20°07' E 057°27'3 3.0
2016-Apr-10 00:33S 20°09' E 057°29'0 0.0
2016-Apr-09 23:34S 20°09' E 057°29'0 0.0
2016-Apr-09 22:33S 20°09' E 057°29'0 0.0
2016-Apr-09 21:34S 20°09' E 057°29'0 0.0
2016-Apr-09 20:34S 20°09' E 057°29'0 0.0
2016-Apr-09 19:33S 20°09' E 057°29'0 0.0
2016-Apr-09 18:33S 20°09' E 057°29'0 0.0
2016-Apr-09 17:33S 20°09' E 057°29'0 0.0
2016-Apr-09 16:34S 20°09' E 057°29'0 0.0
2016-Apr-09 15:34S 20°09' E 057°29'0 0.0
2016-Apr-09 14:34S 20°09' E 057°29'0 0.0
2016-Apr-09 13:34S 20°09' E 057°29'0 0.0
2016-Apr-09 12:34S 20°09' E 057°29'0 0.0
2016-Apr-09 11:31S 20°09' E 057°29'0 0.1
2016-Apr-09 10:33S 20°08' E 057°29'4 3.7
2016-Apr-09 09:34S 20°06' E 057°26'2 2.1
2016-Apr-09 08:34S 20°04' E 057°25'1 1.3
2016-Apr-09 07:34S 20°05' E 057°24'1 1.2
2016-Apr-09 06:34S 20°05' E 057°23'1 0.9
2016-Apr-09 05:34S 20°06' E 057°23'1 0.6
2016-Apr-09 04:34S 20°06' E 057°24'0 0.2
2016-Apr-09 03:34S 20°06' E 057°23'5 5.5
2016-Apr-09 02:34S 20°00' E 057°25'1312.9
2016-Apr-09 01:33S 19°49' E 057°31'  

Dump ship's entire track history